sensor_id;sensor_type;location;lat;lon;timestamp;temperature;humidity
5150;DHT22;2593;52.466;13.436;2023-11-19T00:01:32;4.60;1.00
5150;DHT22;2593;52.466;13.436;2023-11-19T00:03:58;4.60;1.00
5150;DHT22;2593;52.466;13.436;2023-11-19T00:06:23;4.60;1.00
5150;DHT22;2593;52.466;13.436;2023-11-19T00:08:50;4.60;1.00
5150;DHT22;2593;52.466;13.436;2023-11-19T00:11:15;4.50;99.90
5150;DHT22;2593;52.466;13.436;2023-11-19T00:13:41;4.60;99.90
5150;DHT22;2593;52.466;13.436;2023-11-19T00:16:06;4.50;99.90
5150;DHT22;2593;52.466;13.436;2023-11-19T00:18:32;4.50;1.00
5150;DHT22;2593;52.466;13.436;2023-11-19T00:20:58;4.50;99.90
5150;DHT22;2593;52.466;13.436;2023-11-19T00:23:23;4.60;99.90
5150;DHT22;2593;52.466;13.436;2023-11-19T00:25:49;4.50;99.90
5150;DHT22;2593;52.466;13.436;2023-11-19T00:28:14;4.50;99.90
5150;DHT22;2593;52.466;13.436;2023-11-19T00:30:40;4.50;99.90
5150;DHT22;2593;52.466;13.436;2023-11-19T00:33:08;4.50;99.90
5150;DHT22;2593;52.466;13.436;2023-11-19T00:35:33;4.50;99.90
5150;DHT22;2593;52.466;13.436;2023-11-19T00:37:59;4.60;99.90
5150;DHT22;2593;52.466;13.436;2023-11-19T00:40:25;4.60;99.90
5150;DHT22;2593;52.466;13.436;2023-11-19T00:42:51;4.70;99.90
5150;DHT22;2593;52.466;13.436;2023-11-19T00:45:16;4.60;99.90
5150;DHT22;2593;52.466;13.436;2023-11-19T00:47:42;4.60;99.90
5150;DHT22;2593;52.466;13.436;2023-11-19T00:50:08;4.70;99.90
5150;DHT22;2593;52.466;13.436;2023-11-19T00:52:37;4.70;99.90
5150;DHT22;2593;52.466;13.436;2023-11-19T00:55:03;4.60;99.90
5150;DHT22;2593;52.466;13.436;2023-11-19T00:57:29;4.60;99.90
5150;DHT22;2593;52.466;13.436;2023-11-19T00:59:55;4.60;99.90
5150;DHT22;2593;52.466;13.436;2023-11-19T01:02:21;4.60;99.90
5150;DHT22;2593;52.466;13.436;2023-11-19T01:04:46;4.60;99.90
5150;DHT22;2593;52.466;13.436;2023-11-19T01:07:12;4.60;99.90
5150;DHT22;2593;52.466;13.436;2023-11-19T01:09:38;4.60;99.90
5150;DHT22;2593;52.466;13.436;2023-11-19T01:12:04;4.60;99.90
5150;DHT22;2593;52.466;13.436;2023-11-19T01:14:30;4.60;99.90
5150;DHT22;2593;52.466;13.436;2023-11-19T01:16:55;4.60;99.90
5150;DHT22;2593;52.466;13.436;2023-11-19T01:19:21;4.60;99.90
5150;DHT22;2593;52.466;13.436;2023-11-19T01:21:47;4.60;99.90
5150;DHT22;2593;52.466;13.436;2023-11-19T01:24:13;4.60;99.90
5150;DHT22;2593;52.466;13.436;2023-11-19T01:26:39;4.60;99.90
5150;DHT22;2593;52.466;13.436;2023-11-19T01:29:16;4.70;99.90
5150;DHT22;2593;52.466;13.436;2023-11-19T01:31:42;4.70;99.90
5150;DHT22;2593;52.466;13.436;2023-11-19T01:34:08;4.70;99.90
5150;DHT22;2593;52.466;13.436;2023-11-19T01:36:34;4.60;99.90
5150;DHT22;2593;52.466;13.436;2023-11-19T01:38:59;4.60;99.90
5150;DHT22;2593;52.466;13.436;2023-11-19T01:41:25;4.70;99.90
5150;DHT22;2593;52.466;13.436;2023-11-19T01:43:50;4.70;99.90
5150;DHT22;2593;52.466;13.436;2023-11-19T01:46:16;4.80;99.90
5150;DHT22;2593;52.466;13.436;2023-11-19T01:48:43;4.80;99.90
5150;DHT22;2593;52.466;13.436;2023-11-19T01:51:09;4.80;99.90
5150;DHT22;2593;52.466;13.436;2023-11-19T01:53:36;4.80;99.90
5150;DHT22;2593;52.466;13.436;2023-11-19T01:56:03;4.80;99.90
5150;DHT22;2593;52.466;13.436;2023-11-19T01:58:29;4.80;99.90
5150;DHT22;2593;52.466;13.436;2023-11-19T02:00:55;4.80;99.90
5150;DHT22;2593;52.466;13.436;2023-11-19T02:03:21;4.80;99.90
5150;DHT22;2593;52.466;13.436;2023-11-19T02:05:47;4.80;99.90
5150;DHT22;2593;52.466;13.436;2023-11-19T02:08:14;4.80;99.90
5150;DHT22;2593;52.466;13.436;2023-11-19T02:10:42;4.80;99.90
5150;DHT22;2593;52.466;13.436;2023-11-19T02:13:08;4.80;99.90
5150;DHT22;2593;52.466;13.436;2023-11-19T02:15:35;4.80;99.90
5150;DHT22;2593;52.466;13.436;2023-11-19T02:20:45;4.80;99.90
5150;DHT22;2593;52.466;13.436;2023-11-19T02:23:11;4.70;99.90
5150;DHT22;2593;52.466;13.436;2023-11-19T02:25:36;4.70;99.90
5150;DHT22;2593;52.466;13.436;2023-11-19T02:28:03;4.80;99.90
5150;DHT22;2593;52.466;13.436;2023-11-19T02:30:28;4.70;99.90
5150;DHT22;2593;52.466;13.436;2023-11-19T02:32:58;4.80;99.90
5150;DHT22;2593;52.466;13.436;2023-11-19T02:35:24;4.80;99.90
5150;DHT22;2593;52.466;13.436;2023-11-19T02:37:50;4.80;99.90
5150;DHT22;2593;52.466;13.436;2023-11-19T02:40:15;4.90;99.90
5150;DHT22;2593;52.466;13.436;2023-11-19T02:42:42;4.90;99.90
5150;DHT22;2593;52.466;13.436;2023-11-19T02:45:08;4.90;99.90
5150;DHT22;2593;52.466;13.436;2023-11-19T02:47:39;4.90;99.90
5150;DHT22;2593;52.466;13.436;2023-11-19T02:50:06;5.00;99.90
5150;DHT22;2593;52.466;13.436;2023-11-19T02:52:39;5.00;99.90
5150;DHT22;2593;52.466;13.436;2023-11-19T02:55:04;5.00;99.90
5150;DHT22;2593;52.466;13.436;2023-11-19T02:57:34;5.00;99.90
5150;DHT22;2593;52.466;13.436;2023-11-19T03:00:00;5.00;99.90
5150;DHT22;2593;52.466;13.436;2023-11-19T03:02:26;5.00;99.90
5150;DHT22;2593;52.466;13.436;2023-11-19T03:04:59;5.00;99.90
5150;DHT22;2593;52.466;13.436;2023-11-19T03:07:25;5.10;99.90
5150;DHT22;2593;52.466;13.436;2023-11-19T03:09:50;5.00;99.90
5150;DHT22;2593;52.466;13.436;2023-11-19T03:12:16;5.00;99.90
5150;DHT22;2593;52.466;13.436;2023-11-19T03:14:41;5.00;99.90
5150;DHT22;2593;52.466;13.436;2023-11-19T03:17:07;4.90;99.90
5150;DHT22;2593;52.466;13.436;2023-11-19T03:19:35;5.00;99.90
5150;DHT22;2593;52.466;13.436;2023-11-19T03:22:01;5.00;99.90
5150;DHT22;2593;52.466;13.436;2023-11-19T03:24:27;5.00;99.90
5150;DHT22;2593;52.466;13.436;2023-11-19T03:26:52;5.00;99.90
5150;DHT22;2593;52.466;13.436;2023-11-19T03:29:18;5.00;99.90
5150;DHT22;2593;52.466;13.436;2023-11-19T03:31:43;5.10;99.90
5150;DHT22;2593;52.466;13.436;2023-11-19T03:34:10;5.10;99.90
5150;DHT22;2593;52.466;13.436;2023-11-19T03:36:35;5.20;99.90
5150;DHT22;2593;52.466;13.436;2023-11-19T03:39:01;5.10;99.90
5150;DHT22;2593;52.466;13.436;2023-11-19T03:41:26;5.20;1.00
5150;DHT22;2593;52.466;13.436;2023-11-19T03:43:52;5.10;1.00
5150;DHT22;2593;52.466;13.436;2023-11-19T03:46:18;5.00;99.90
5150;DHT22;2593;52.466;13.436;2023-11-19T03:48:44;4.90;99.90
5150;DHT22;2593;52.466;13.436;2023-11-19T03:51:11;4.80;99.90
5150;DHT22;2593;52.466;13.436;2023-11-19T03:53:43;4.80;99.90
5150;DHT22;2593;52.466;13.436;2023-11-19T03:56:10;4.80;99.90
5150;DHT22;2593;52.466;13.436;2023-11-19T03:58:36;4.80;99.90
5150;DHT22;2593;52.466;13.436;2023-11-19T04:01:04;4.70;99.90
5150;DHT22;2593;52.466;13.436;2023-11-19T04:03:29;4.70;1.00
5150;DHT22;2593;52.466;13.436;2023-11-19T04:05:55;4.70;1.00
5150;DHT22;2593;52.466;13.436;2023-11-19T04:08:21;4.70;1.00
5150;DHT22;2593;52.466;13.436;2023-11-19T04:10:47;4.70;1.00
5150;DHT22;2593;52.466;13.436;2023-11-19T04:13:12;4.60;83.20
5150;DHT22;2593;52.466;13.436;2023-11-19T04:15:38;4.70;99.90
5150;DHT22;2593;52.466;13.436;2023-11-19T04:18:03;4.60;99.90
5150;DHT22;2593;52.466;13.436;2023-11-19T04:20:29;4.60;99.90
5150;DHT22;2593;52.466;13.436;2023-11-19T04:22:54;4.60;99.90
5150;DHT22;2593;52.466;13.436;2023-11-19T04:25:20;4.60;99.90
5150;DHT22;2593;52.466;13.436;2023-11-19T04:27:45;4.60;99.90
5150;DHT22;2593;52.466;13.436;2023-11-19T04:30:13;4.50;99.90
5150;DHT22;2593;52.466;13.436;2023-11-19T04:32:38;4.50;99.90
5150;DHT22;2593;52.466;13.436;2023-11-19T04:35:04;4.60;99.90
5150;DHT22;2593;52.466;13.436;2023-11-19T04:37:32;4.60;99.90
5150;DHT22;2593;52.466;13.436;2023-11-19T04:39:57;4.60;99.90
5150;DHT22;2593;52.466;13.436;2023-11-19T04:42:23;4.60;99.90
5150;DHT22;2593;52.466;13.436;2023-11-19T04:44:49;4.70;99.90
5150;DHT22;2593;52.466;13.436;2023-11-19T04:47:15;4.60;99.90
5150;DHT22;2593;52.466;13.436;2023-11-19T04:49:40;4.60;99.90
5150;DHT22;2593;52.466;13.436;2023-11-19T04:52:08;4.60;99.90
5150;DHT22;2593;52.466;13.436;2023-11-19T04:54:34;4.60;99.90
5150;DHT22;2593;52.466;13.436;2023-11-19T04:56:59;4.60;99.90
5150;DHT22;2593;52.466;13.436;2023-11-19T04:59:25;4.60;99.90
5150;DHT22;2593;52.466;13.436;2023-11-19T05:01:50;4.60;99.90
5150;DHT22;2593;52.466;13.436;2023-11-19T05:04:16;4.60;99.90
5150;DHT22;2593;52.466;13.436;2023-11-19T05:06:41;4.70;99.90
5150;DHT22;2593;52.466;13.436;2023-11-19T05:09:07;4.60;99.90
5150;DHT22;2593;52.466;13.436;2023-11-19T05:11:33;4.60;99.90
5150;DHT22;2593;52.466;13.436;2023-11-19T05:13:59;4.50;99.90
5150;DHT22;2593;52.466;13.436;2023-11-19T05:16:25;4.60;99.90
5150;DHT22;2593;52.466;13.436;2023-11-19T05:18:51;4.60;99.90
5150;DHT22;2593;52.466;13.436;2023-11-19T05:21:17;4.50;99.90
5150;DHT22;2593;52.466;13.436;2023-11-19T05:23:42;4.50;99.90
5150;DHT22;2593;52.466;13.436;2023-11-19T05:26:08;4.50;99.90
5150;DHT22;2593;52.466;13.436;2023-11-19T05:28:37;4.50;99.90
5150;DHT22;2593;52.466;13.436;2023-11-19T05:31:03;4.50;99.90
5150;DHT22;2593;52.466;13.436;2023-11-19T05:33:28;4.60;99.90
5150;DHT22;2593;52.466;13.436;2023-11-19T05:35:54;4.60;99.90
5150;DHT22;2593;52.466;13.436;2023-11-19T05:38:19;4.60;99.90
5150;DHT22;2593;52.466;13.436;2023-11-19T05:40:46;4.60;99.90
5150;DHT22;2593;52.466;13.436;2023-11-19T05:43:13;4.50;99.90
5150;DHT22;2593;52.466;13.436;2023-11-19T05:45:40;4.60;99.90
5150;DHT22;2593;52.466;13.436;2023-11-19T05:48:05;4.60;99.90
5150;DHT22;2593;52.466;13.436;2023-11-19T05:50:31;4.60;99.90
5150;DHT22;2593;52.466;13.436;2023-11-19T05:52:57;4.60;99.90
5150;DHT22;2593;52.466;13.436;2023-11-19T05:55:23;4.60;99.90
5150;DHT22;2593;52.466;13.436;2023-11-19T05:57:49;4.60;99.90
5150;DHT22;2593;52.466;13.436;2023-11-19T06:00:17;4.60;99.90
5150;DHT22;2593;52.466;13.436;2023-11-19T06:02:43;4.60;99.90
5150;DHT22;2593;52.466;13.436;2023-11-19T06:05:08;4.60;99.90
5150;DHT22;2593;52.466;13.436;2023-11-19T06:07:34;4.60;99.90
5150;DHT22;2593;52.466;13.436;2023-11-19T06:10:02;4.60;99.90
5150;DHT22;2593;52.466;13.436;2023-11-19T06:12:28;4.60;99.90
5150;DHT22;2593;52.466;13.436;2023-11-19T06:14:53;4.70;99.90
5150;DHT22;2593;52.466;13.436;2023-11-19T06:17:19;4.70;99.90
5150;DHT22;2593;52.466;13.436;2023-11-19T06:19:44;4.70;99.90
5150;DHT22;2593;52.466;13.436;2023-11-19T06:22:10;4.70;99.90
5150;DHT22;2593;52.466;13.436;2023-11-19T06:24:36;4.70;99.90
5150;DHT22;2593;52.466;13.436;2023-11-19T06:27:02;4.70;99.90
5150;DHT22;2593;52.466;13.436;2023-11-19T06:29:28;4.70;99.90
5150;DHT22;2593;52.466;13.436;2023-11-19T06:31:53;4.70;99.90
5150;DHT22;2593;52.466;13.436;2023-11-19T06:34:19;4.70;99.90
5150;DHT22;2593;52.466;13.436;2023-11-19T06:36:44;4.70;99.90
5150;DHT22;2593;52.466;13.436;2023-11-19T06:39:10;4.60;99.90
5150;DHT22;2593;52.466;13.436;2023-11-19T06:41:38;4.60;99.90
5150;DHT22;2593;52.466;13.436;2023-11-19T06:44:04;4.70;99.90
5150;DHT22;2593;52.466;13.436;2023-11-19T06:46:30;4.70;99.90
5150;DHT22;2593;52.466;13.436;2023-11-19T06:48:56;4.80;99.90
5150;DHT22;2593;52.466;13.436;2023-11-19T06:51:22;4.70;99.90
5150;DHT22;2593;52.466;13.436;2023-11-19T06:53:47;4.70;99.90
5150;DHT22;2593;52.466;13.436;2023-11-19T06:58:44;4.70;99.90
5150;DHT22;2593;52.466;13.436;2023-11-19T07:01:10;4.80;99.90
5150;DHT22;2593;52.466;13.436;2023-11-19T07:03:36;4.80;99.90
5150;DHT22;2593;52.466;13.436;2023-11-19T07:06:01;4.70;99.90
5150;DHT22;2593;52.466;13.436;2023-11-19T07:08:29;4.80;99.90
5150;DHT22;2593;52.466;13.436;2023-11-19T07:10:54;4.90;99.90
5150;DHT22;2593;52.466;13.436;2023-11-19T07:13:20;4.90;99.90
5150;DHT22;2593;52.466;13.436;2023-11-19T07:15:46;4.80;99.90
5150;DHT22;2593;52.466;13.436;2023-11-19T07:18:11;4.80;99.90
5150;DHT22;2593;52.466;13.436;2023-11-19T07:20:37;4.80;99.90
5150;DHT22;2593;52.466;13.436;2023-11-19T07:23:03;4.90;99.90
5150;DHT22;2593;52.466;13.436;2023-11-19T07:25:29;4.90;99.90
5150;DHT22;2593;52.466;13.436;2023-11-19T07:27:54;4.90;99.90
5150;DHT22;2593;52.466;13.436;2023-11-19T07:30:20;4.90;99.90
5150;DHT22;2593;52.466;13.436;2023-11-19T07:32:45;5.00;99.90
5150;DHT22;2593;52.466;13.436;2023-11-19T07:35:11;5.00;99.90
5150;DHT22;2593;52.466;13.436;2023-11-19T07:37:37;5.10;99.90
5150;DHT22;2593;52.466;13.436;2023-11-19T07:40:02;5.00;99.90
5150;DHT22;2593;52.466;13.436;2023-11-19T07:42:28;5.00;99.90
5150;DHT22;2593;52.466;13.436;2023-11-19T07:44:54;5.00;99.90
5150;DHT22;2593;52.466;13.436;2023-11-19T07:47:21;5.00;99.90
5150;DHT22;2593;52.466;13.436;2023-11-19T07:49:49;5.20;99.90
5150;DHT22;2593;52.466;13.436;2023-11-19T07:52:15;5.10;99.90
5150;DHT22;2593;52.466;13.436;2023-11-19T07:54:41;5.10;99.90
5150;DHT22;2593;52.466;13.436;2023-11-19T07:57:06;5.10;99.90
5150;DHT22;2593;52.466;13.436;2023-11-19T07:59:34;5.20;99.90
5150;DHT22;2593;52.466;13.436;2023-11-19T08:01:59;5.30;99.90
5150;DHT22;2593;52.466;13.436;2023-11-19T08:04:25;5.30;99.90
5150;DHT22;2593;52.466;13.436;2023-11-19T08:06:50;5.30;99.90
5150;DHT22;2593;52.466;13.436;2023-11-19T08:09:16;5.30;99.90
5150;DHT22;2593;52.466;13.436;2023-11-19T08:11:42;5.40;99.90
5150;DHT22;2593;52.466;13.436;2023-11-19T08:14:08;5.50;99.90
5150;DHT22;2593;52.466;13.436;2023-11-19T08:16:34;5.40;99.90
5150;DHT22;2593;52.466;13.436;2023-11-19T08:18:59;5.40;99.90
5150;DHT22;2593;52.466;13.436;2023-11-19T08:21:25;5.50;99.90
5150;DHT22;2593;52.466;13.436;2023-11-19T08:23:52;5.70;99.90
5150;DHT22;2593;52.466;13.436;2023-11-19T08:26:17;5.60;99.90
5150;DHT22;2593;52.466;13.436;2023-11-19T08:28:43;5.60;99.90
5150;DHT22;2593;52.466;13.436;2023-11-19T08:31:08;5.60;99.90
5150;DHT22;2593;52.466;13.436;2023-11-19T08:33:34;5.60;99.90
5150;DHT22;2593;52.466;13.436;2023-11-19T08:36:00;5.80;99.90
5150;DHT22;2593;52.466;13.436;2023-11-19T08:38:26;5.90;99.90
5150;DHT22;2593;52.466;13.436;2023-11-19T08:40:51;5.90;99.90
5150;DHT22;2593;52.466;13.436;2023-11-19T08:43:17;6.00;99.90
5150;DHT22;2593;52.466;13.436;2023-11-19T08:45:43;6.00;99.90
5150;DHT22;2593;52.466;13.436;2023-11-19T08:48:09;6.00;99.90
5150;DHT22;2593;52.466;13.436;2023-11-19T08:50:34;6.00;99.90
5150;DHT22;2593;52.466;13.436;2023-11-19T08:53:00;6.10;99.90
5150;DHT22;2593;52.466;13.436;2023-11-19T08:55:25;6.20;99.90
5150;DHT22;2593;52.466;13.436;2023-11-19T08:57:51;6.30;99.90
5150;DHT22;2593;52.466;13.436;2023-11-19T09:00:17;6.40;99.90
5150;DHT22;2593;52.466;13.436;2023-11-19T09:02:43;6.40;99.90
5150;DHT22;2593;52.466;13.436;2023-11-19T09:05:08;6.40;99.90
5150;DHT22;2593;52.466;13.436;2023-11-19T09:07:34;6.50;99.90
5150;DHT22;2593;52.466;13.436;2023-11-19T09:09:59;6.40;99.90
5150;DHT22;2593;52.466;13.436;2023-11-19T09:12:25;6.50;99.90
5150;DHT22;2593;52.466;13.436;2023-11-19T09:14:51;6.50;99.90
5150;DHT22;2593;52.466;13.436;2023-11-19T09:17:16;6.60;99.90
5150;DHT22;2593;52.466;13.436;2023-11-19T09:19:43;6.70;99.90
5150;DHT22;2593;52.466;13.436;2023-11-19T09:22:08;6.80;99.90
5150;DHT22;2593;52.466;13.436;2023-11-19T09:24:34;6.80;99.90
5150;DHT22;2593;52.466;13.436;2023-11-19T09:26:59;6.90;99.90
5150;DHT22;2593;52.466;13.436;2023-11-19T09:29:25;7.10;99.90
5150;DHT22;2593;52.466;13.436;2023-11-19T09:31:51;7.50;99.90
5150;DHT22;2593;52.466;13.436;2023-11-19T09:34:16;7.80;99.90
5150;DHT22;2593;52.466;13.436;2023-11-19T09:36:42;8.10;99.90
5150;DHT22;2593;52.466;13.436;2023-11-19T09:39:10;8.20;99.90
5150;DHT22;2593;52.466;13.436;2023-11-19T09:41:35;8.10;99.90
5150;DHT22;2593;52.466;13.436;2023-11-19T09:44:01;8.10;99.90
5150;DHT22;2593;52.466;13.436;2023-11-19T09:46:26;8.30;99.90
5150;DHT22;2593;52.466;13.436;2023-11-19T09:48:52;8.30;99.90
5150;DHT22;2593;52.466;13.436;2023-11-19T09:51:19;8.80;99.90
5150;DHT22;2593;52.466;13.436;2023-11-19T09:53:45;9.90;99.90
5150;DHT22;2593;52.466;13.436;2023-11-19T09:56:11;11.00;99.90
5150;DHT22;2593;52.466;13.436;2023-11-19T09:58:37;11.80;99.90
5150;DHT22;2593;52.466;13.436;2023-11-19T10:01:03;11.60;99.90
5150;DHT22;2593;52.466;13.436;2023-11-19T10:03:33;11.60;99.90
5150;DHT22;2593;52.466;13.436;2023-11-19T10:06:09;11.30;99.90
5150;DHT22;2593;52.466;13.436;2023-11-19T10:08:38;11.10;99.90
5150;DHT22;2593;52.466;13.436;2023-11-19T10:11:05;10.80;99.90
5150;DHT22;2593;52.466;13.436;2023-11-19T10:13:31;10.40;99.90
5150;DHT22;2593;52.466;13.436;2023-11-19T10:15:56;10.20;99.90
5150;DHT22;2593;52.466;13.436;2023-11-19T10:18:25;10.00;99.90
5150;DHT22;2593;52.466;13.436;2023-11-19T10:20:51;9.90;99.90
5150;DHT22;2593;52.466;13.436;2023-11-19T10:23:17;9.90;99.90
5150;DHT22;2593;52.466;13.436;2023-11-19T10:25:43;9.90;99.90
5150;DHT22;2593;52.466;13.436;2023-11-19T10:28:08;9.70;99.90
5150;DHT22;2593;52.466;13.436;2023-11-19T10:30:34;9.80;99.90
5150;DHT22;2593;52.466;13.436;2023-11-19T10:33:07;9.80;99.90
5150;DHT22;2593;52.466;13.436;2023-11-19T10:35:36;9.80;99.90
5150;DHT22;2593;52.466;13.436;2023-11-19T10:38:14;10.00;99.90
5150;DHT22;2593;52.466;13.436;2023-11-19T10:40:43;10.10;99.90
5150;DHT22;2593;52.466;13.436;2023-11-19T10:43:09;10.20;99.90
5150;DHT22;2593;52.466;13.436;2023-11-19T10:45:35;10.20;99.90
5150;DHT22;2593;52.466;13.436;2023-11-19T10:48:02;10.30;99.90
5150;DHT22;2593;52.466;13.436;2023-11-19T10:50:27;10.40;99.90
5150;DHT22;2593;52.466;13.436;2023-11-19T10:52:56;10.50;99.90
5150;DHT22;2593;52.466;13.436;2023-11-19T10:55:26;10.60;99.90
5150;DHT22;2593;52.466;13.436;2023-11-19T10:57:52;10.60;99.90
5150;DHT22;2593;52.466;13.436;2023-11-19T11:00:18;10.60;99.90
5150;DHT22;2593;52.466;13.436;2023-11-19T11:02:45;10.70;99.90
5150;DHT22;2593;52.466;13.436;2023-11-19T11:05:12;10.80;99.90
5150;DHT22;2593;52.466;13.436;2023-11-19T11:07:37;10.60;99.90
5150;DHT22;2593;52.466;13.436;2023-11-19T11:10:05;10.60;99.90
5150;DHT22;2593;52.466;13.436;2023-11-19T11:12:34;10.60;99.90
5150;DHT22;2593;52.466;13.436;2023-11-19T11:15:01;10.50;99.90
5150;DHT22;2593;52.466;13.436;2023-11-19T11:17:28;10.50;99.90
5150;DHT22;2593;52.466;13.436;2023-11-19T11:19:57;10.50;99.90
5150;DHT22;2593;52.466;13.436;2023-11-19T11:22:22;10.50;99.90
5150;DHT22;2593;52.466;13.436;2023-11-19T11:24:54;10.40;99.90
5150;DHT22;2593;52.466;13.436;2023-11-19T11:27:37;10.50;99.90
5150;DHT22;2593;52.466;13.436;2023-11-19T11:32:54;10.40;99.90
5150;DHT22;2593;52.466;13.436;2023-11-19T11:37:48;10.50;99.90
5150;DHT22;2593;52.466;13.436;2023-11-19T11:40:15;10.70;99.90
5150;DHT22;2593;52.466;13.436;2023-11-19T11:42:41;10.80;99.90
5150;DHT22;2593;52.466;13.436;2023-11-19T11:45:08;10.80;99.90
5150;DHT22;2593;52.466;13.436;2023-11-19T11:50:12;10.90;99.90
5150;DHT22;2593;52.466;13.436;2023-11-19T11:57:51;11.00;99.90
5150;DHT22;2593;52.466;13.436;2023-11-19T12:02:55;11.10;99.90
5150;DHT22;2593;52.466;13.436;2023-11-19T12:05:21;11.30;99.90
5150;DHT22;2593;52.466;13.436;2023-11-19T12:08:02;11.40;99.90
5150;DHT22;2593;52.466;13.436;2023-11-19T12:10:30;11.40;99.90
5150;DHT22;2593;52.466;13.436;2023-11-19T12:12:59;11.50;99.90
5150;DHT22;2593;52.466;13.436;2023-11-19T12:15:28;11.60;99.90
5150;DHT22;2593;52.466;13.436;2023-11-19T12:17:54;11.50;99.90
5150;DHT22;2593;52.466;13.436;2023-11-19T12:20:28;11.50;99.90
5150;DHT22;2593;52.466;13.436;2023-11-19T12:23:00;11.50;99.90
5150;DHT22;2593;52.466;13.436;2023-11-19T12:25:29;11.40;99.90
5150;DHT22;2593;52.466;13.436;2023-11-19T12:27:59;11.50;99.90
5150;DHT22;2593;52.466;13.436;2023-11-19T12:30:25;11.60;99.90
5150;DHT22;2593;52.466;13.436;2023-11-19T12:32:51;11.60;99.90
5150;DHT22;2593;52.466;13.436;2023-11-19T12:35:19;11.80;99.90
5150;DHT22;2593;52.466;13.436;2023-11-19T12:37:45;11.60;99.90
5150;DHT22;2593;52.466;13.436;2023-11-19T12:40:18;11.60;99.90
5150;DHT22;2593;52.466;13.436;2023-11-19T12:42:44;11.60;99.90
5150;DHT22;2593;52.466;13.436;2023-11-19T12:45:10;11.50;99.90
5150;DHT22;2593;52.466;13.436;2023-11-19T12:47:36;11.40;99.90
5150;DHT22;2593;52.466;13.436;2023-11-19T12:50:02;11.40;99.90
5150;DHT22;2593;52.466;13.436;2023-11-19T12:52:29;11.20;99.90
5150;DHT22;2593;52.466;13.436;2023-11-19T12:54:55;11.20;99.90
5150;DHT22;2593;52.466;13.436;2023-11-19T12:57:20;11.20;99.90
5150;DHT22;2593;52.466;13.436;2023-11-19T12:59:55;11.40;99.90
5150;DHT22;2593;52.466;13.436;2023-11-19T13:02:22;11.60;99.90
5150;DHT22;2593;52.466;13.436;2023-11-19T13:04:48;11.60;99.90
5150;DHT22;2593;52.466;13.436;2023-11-19T13:07:15;11.50;99.90
5150;DHT22;2593;52.466;13.436;2023-11-19T13:09:45;11.50;99.90
5150;DHT22;2593;52.466;13.436;2023-11-19T13:12:14;11.40;99.90
5150;DHT22;2593;52.466;13.436;2023-11-19T13:14:40;11.50;99.90
5150;DHT22;2593;52.466;13.436;2023-11-19T13:17:07;11.50;99.90
5150;DHT22;2593;52.466;13.436;2023-11-19T13:19:33;11.50;99.90
5150;DHT22;2593;52.466;13.436;2023-11-19T13:21:59;11.40;99.90
5150;DHT22;2593;52.466;13.436;2023-11-19T13:24:24;11.30;99.90
5150;DHT22;2593;52.466;13.436;2023-11-19T13:26:50;11.20;99.90
5150;DHT22;2593;52.466;13.436;2023-11-19T13:29:15;11.10;99.90
5150;DHT22;2593;52.466;13.436;2023-11-19T13:31:41;11.30;99.90
5150;DHT22;2593;52.466;13.436;2023-11-19T13:34:06;11.40;99.90
5150;DHT22;2593;52.466;13.436;2023-11-19T13:36:33;11.30;99.90
5150;DHT22;2593;52.466;13.436;2023-11-19T13:38:58;11.30;99.90
5150;DHT22;2593;52.466;13.436;2023-11-19T13:41:25;11.30;99.90
5150;DHT22;2593;52.466;13.436;2023-11-19T13:43:50;11.10;99.90
5150;DHT22;2593;52.466;13.436;2023-11-19T13:46:16;11.20;99.90
5150;DHT22;2593;52.466;13.436;2023-11-19T13:48:42;11.10;99.90
5150;DHT22;2593;52.466;13.436;2023-11-19T13:51:07;11.20;99.90
5150;DHT22;2593;52.466;13.436;2023-11-19T13:53:35;11.30;99.90
5150;DHT22;2593;52.466;13.436;2023-11-19T13:56:00;11.30;99.90
5150;DHT22;2593;52.466;13.436;2023-11-19T13:58:26;11.30;99.90
5150;DHT22;2593;52.466;13.436;2023-11-19T14:00:51;11.20;99.90
5150;DHT22;2593;52.466;13.436;2023-11-19T14:03:17;11.10;99.90
5150;DHT22;2593;52.466;13.436;2023-11-19T14:05:43;11.10;99.90
5150;DHT22;2593;52.466;13.436;2023-11-19T14:08:09;11.00;99.90
5150;DHT22;2593;52.466;13.436;2023-11-19T14:10:37;11.00;99.90
5150;DHT22;2593;52.466;13.436;2023-11-19T14:13:04;11.00;99.90
5150;DHT22;2593;52.466;13.436;2023-11-19T14:15:30;11.00;99.90
5150;DHT22;2593;52.466;13.436;2023-11-19T14:17:55;11.00;99.90
5150;DHT22;2593;52.466;13.436;2023-11-19T14:20:21;11.00;99.90
5150;DHT22;2593;52.466;13.436;2023-11-19T14:22:46;11.00;99.90
5150;DHT22;2593;52.466;13.436;2023-11-19T14:25:14;10.90;99.90
5150;DHT22;2593;52.466;13.436;2023-11-19T14:27:40;11.00;99.90
5150;DHT22;2593;52.466;13.436;2023-11-19T14:30:07;10.90;99.90
5150;DHT22;2593;52.466;13.436;2023-11-19T14:32:33;11.00;99.90
5150;DHT22;2593;52.466;13.436;2023-11-19T14:34:59;10.90;99.90
5150;DHT22;2593;52.466;13.436;2023-11-19T14:37:24;10.90;99.90
5150;DHT22;2593;52.466;13.436;2023-11-19T14:39:50;10.90;99.90
5150;DHT22;2593;52.466;13.436;2023-11-19T14:42:16;10.90;99.90
5150;DHT22;2593;52.466;13.436;2023-11-19T14:44:42;10.90;99.90
5150;DHT22;2593;52.466;13.436;2023-11-19T14:47:07;10.90;99.90
5150;DHT22;2593;52.466;13.436;2023-11-19T14:49:34;10.90;99.90
5150;DHT22;2593;52.466;13.436;2023-11-19T14:52:00;11.00;99.90
5150;DHT22;2593;52.466;13.436;2023-11-19T14:54:25;11.00;99.90
5150;DHT22;2593;52.466;13.436;2023-11-19T14:56:51;11.00;99.90
5150;DHT22;2593;52.466;13.436;2023-11-19T14:59:17;11.00;99.90
5150;DHT22;2593;52.466;13.436;2023-11-19T15:01:46;11.00;99.90
5150;DHT22;2593;52.466;13.436;2023-11-19T15:04:12;10.90;99.90
5150;DHT22;2593;52.466;13.436;2023-11-19T15:06:37;11.00;99.90
5150;DHT22;2593;52.466;13.436;2023-11-19T15:09:03;11.10;99.90
5150;DHT22;2593;52.466;13.436;2023-11-19T15:11:29;11.00;99.90
5150;DHT22;2593;52.466;13.436;2023-11-19T15:13:54;10.90;99.90
5150;DHT22;2593;52.466;13.436;2023-11-19T15:16:20;10.90;99.90
5150;DHT22;2593;52.466;13.436;2023-11-19T15:18:51;11.10;99.90
5150;DHT22;2593;52.466;13.436;2023-11-19T15:21:17;11.10;99.90
5150;DHT22;2593;52.466;13.436;2023-11-19T15:23:43;10.90;99.90
5150;DHT22;2593;52.466;13.436;2023-11-19T15:26:08;10.90;99.90
5150;DHT22;2593;52.466;13.436;2023-11-19T15:28:36;10.80;99.90
5150;DHT22;2593;52.466;13.436;2023-11-19T15:31:01;10.70;99.90
5150;DHT22;2593;52.466;13.436;2023-11-19T15:33:28;10.70;99.90
5150;DHT22;2593;52.466;13.436;2023-11-19T15:35:53;10.60;99.90
5150;DHT22;2593;52.466;13.436;2023-11-19T15:38:19;10.50;99.90
5150;DHT22;2593;52.466;13.436;2023-11-19T15:40:44;10.40;99.90
5150;DHT22;2593;52.466;13.436;2023-11-19T15:43:10;10.40;99.90
5150;DHT22;2593;52.466;13.436;2023-11-19T15:45:36;10.40;99.90
5150;DHT22;2593;52.466;13.436;2023-11-19T15:48:04;10.30;99.90
5150;DHT22;2593;52.466;13.436;2023-11-19T15:50:30;10.30;99.90
5150;DHT22;2593;52.466;13.436;2023-11-19T15:52:56;10.30;99.90
5150;DHT22;2593;52.466;13.436;2023-11-19T15:55:22;10.30;99.90
5150;DHT22;2593;52.466;13.436;2023-11-19T15:57:47;10.30;99.90
5150;DHT22;2593;52.466;13.436;2023-11-19T16:00:13;10.40;99.90
5150;DHT22;2593;52.466;13.436;2023-11-19T16:02:42;10.30;99.90
5150;DHT22;2593;52.466;13.436;2023-11-19T16:05:08;10.40;99.90
5150;DHT22;2593;52.466;13.436;2023-11-19T16:07:34;10.40;99.90
5150;DHT22;2593;52.466;13.436;2023-11-19T16:10:01;10.30;99.90
5150;DHT22;2593;52.466;13.436;2023-11-19T16:12:29;10.30;99.90